createdAt,value
2018-09-21T00:01:30.177Z,9.63
2018-09-21T00:04:01.650Z,11.47
2018-09-21T00:06:29.049Z,18.20
2018-09-21T00:08:56.944Z,16.60
2018-09-21T00:11:25.202Z,16.80
2018-09-21T00:13:52.648Z,9.03
2018-09-21T00:16:21.045Z,14.50
2018-09-21T00:18:48.423Z,16.83
2018-09-21T00:21:15.981Z,11.23
2018-09-21T00:23:43.333Z,12.40
2018-09-21T00:26:10.674Z,16.13
2018-09-21T00:28:38.249Z,15.67
2018-09-21T00:31:05.781Z,10.60
2018-09-21T00:33:33.149Z,12.47
2018-09-21T00:36:00.485Z,28.53
2018-09-21T00:38:28.234Z,22.40
2018-09-21T00:40:56.534Z,16.03
2018-09-21T00:43:24.604Z,15.80
2018-09-21T00:45:52.000Z,15.53
2018-09-21T00:48:19.398Z,17.67
2018-09-21T00:50:46.742Z,15.33
2018-09-21T00:53:14.152Z,15.53
2018-09-21T00:55:41.521Z,11.35
2018-09-21T00:58:08.903Z,13.10
2018-09-21T01:00:36.235Z,9.83
2018-09-21T01:03:03.614Z,15.33
2018-09-21T01:05:30.964Z,14.77
2018-09-21T01:07:58.533Z,10.97
2018-09-21T01:10:26.958Z,14.77
2018-09-21T01:12:54.605Z,11.73
2018-09-21T01:15:22.054Z,15.20
2018-09-21T01:17:49.441Z,11.20
2018-09-21T01:20:16.804Z,12.77
2018-09-21T01:22:44.183Z,16.63
2018-09-21T01:25:11.511Z,23.92
2018-09-21T01:27:38.866Z,18.57
2018-09-21T01:30:06.223Z,10.73
2018-09-21T01:32:33.581Z,17.03
2018-09-21T01:35:00.930Z,19.30
2018-09-21T01:37:28.909Z,17.47
2018-09-21T01:39:57.261Z,21.13
2018-09-21T01:42:24.622Z,14.77
2018-09-21T01:44:52.001Z,12.07
2018-09-21T01:47:19.366Z,14.27
2018-09-21T01:49:46.830Z,11.10
2018-09-21T01:52:14.235Z,12.83
2018-09-21T01:54:41.591Z,12.43
2018-09-21T01:57:08.938Z,13.63
2018-09-21T01:59:36.311Z,13.40
2018-09-21T02:02:03.677Z,14.00
2018-09-21T02:04:36.388Z,16.83
2018-09-21T02:07:03.833Z,14.10
2018-09-21T02:09:31.250Z,14.53
2018-09-21T02:11:58.603Z,14.73
2018-09-21T02:14:26.040Z,12.20
2018-09-21T02:16:53.426Z,13.57
2018-09-21T02:19:20.967Z,11.90
2018-09-21T02:21:48.287Z,17.90
2018-09-21T02:24:15.659Z,14.70
2018-09-21T02:26:42.992Z,15.83
2018-09-21T02:29:10.958Z,15.93
2018-09-21T02:31:39.646Z,13.10
2018-09-21T02:34:07.167Z,14.67
2018-09-21T02:36:34.601Z,12.80
2018-09-21T02:39:02.012Z,12.23
2018-09-21T02:41:29.382Z,14.07
2018-09-21T02:43:56.865Z,17.33
2018-09-21T02:46:24.180Z,13.87
2018-09-21T02:48:51.644Z,13.23
2018-09-21T02:51:18.896Z,19.57
2018-09-21T02:53:46.259Z,11.47
2018-09-21T02:56:13.646Z,12.33
2018-09-21T02:58:41.499Z,14.57
2018-09-21T03:01:09.868Z,12.03
2018-09-21T03:03:37.273Z,11.73
2018-09-21T03:06:04.779Z,10.40
2018-09-21T03:08:32.102Z,17.83
2018-09-21T03:10:59.678Z,16.93
2018-09-21T03:13:27.016Z,14.10
2018-09-21T03:15:54.371Z,12.83
2018-09-21T03:18:21.702Z,13.70
2018-09-21T03:20:49.098Z,13.77
2018-09-21T03:23:16.467Z,12.53
2018-09-21T03:25:43.849Z,11.73
2018-09-21T03:28:11.870Z,11.63
2018-09-21T03:30:40.264Z,17.17
2018-09-21T03:33:07.693Z,17.00
2018-09-21T03:35:35.112Z,11.43
2018-09-21T03:38:02.439Z,15.17
2018-09-21T03:40:29.806Z,13.33
2018-09-21T03:42:57.375Z,15.40
2018-09-21T03:45:24.758Z,12.73
2018-09-21T03:47:52.118Z,13.27
2018-09-21T03:50:19.468Z,12.40
2018-09-21T03:52:46.800Z,13.37
2018-09-21T03:55:14.154Z,12.53
2018-09-21T03:57:42.163Z,14.37
2018-09-21T04:00:10.637Z,12.43
2018-09-21T04:02:38.100Z,10.10
2018-09-21T04:05:06.218Z,12.70
2018-09-21T04:07:33.562Z,13.33
2018-09-21T04:10:00.946Z,16.47
2018-09-21T04:12:28.279Z,12.33
2018-09-21T04:14:55.657Z,9.97
2018-09-21T04:17:22.986Z,12.67
2018-09-21T04:19:50.339Z,13.30
2018-09-21T04:22:17.673Z,13.20
2018-09-21T04:24:45.063Z,15.93
2018-09-21T04:27:12.971Z,13.80
2018-09-21T04:29:41.570Z,16.63
2018-09-21T04:32:09.225Z,12.60
2018-09-21T04:34:36.613Z,14.67
2018-09-21T04:37:03.963Z,12.23
2018-09-21T04:39:31.287Z,24.13
2018-09-21T04:41:58.658Z,15.67
2018-09-21T04:44:25.994Z,10.43
2018-09-21T04:46:53.355Z,16.17
2018-09-21T04:49:20.680Z,8.77
2018-09-21T04:51:48.057Z,23.80
2018-09-21T04:54:15.377Z,15.20
2018-09-21T04:56:43.223Z,15.37
2018-09-21T04:59:11.470Z,12.90
2018-09-21T05:01:38.922Z,13.70
2018-09-21T05:04:06.349Z,15.60
2018-09-21T05:06:33.706Z,13.60
2018-09-21T05:09:01.078Z,12.77
2018-09-21T05:11:28.673Z,14.00
2018-09-21T05:13:56.043Z,14.13
2018-09-21T05:16:23.414Z,13.53
2018-09-21T05:18:50.755Z,13.63
2018-09-21T05:21:18.898Z,13.48
2018-09-21T05:23:46.219Z,14.03
2018-09-21T05:26:14.034Z,13.50
2018-09-21T05:28:42.498Z,17.07
2018-09-21T05:31:10.356Z,15.30
2018-09-21T05:33:37.765Z,16.77
2018-09-21T05:36:05.162Z,14.37
2018-09-21T05:38:32.499Z,14.60
2018-09-21T05:40:59.965Z,19.70
2018-09-21T05:43:27.279Z,17.30
2018-09-21T05:45:54.642Z,17.60
2018-09-21T05:48:21.993Z,16.67
2018-09-21T05:50:49.495Z,17.10
2018-09-21T05:53:16.850Z,13.10
2018-09-21T05:55:44.554Z,15.50
2018-09-21T05:58:12.948Z,14.10
2018-09-21T06:00:40.460Z,12.47
2018-09-21T06:03:07.886Z,9.83
2018-09-21T06:05:35.198Z,10.87
2018-09-21T06:08:02.598Z,7.83
2018-09-21T06:10:29.949Z,13.23
2018-09-21T06:12:57.372Z,14.50
2018-09-21T06:15:24.721Z,16.57
2018-09-21T06:17:52.074Z,12.17
2018-09-21T06:20:19.434Z,12.77
2018-09-21T06:22:46.837Z,20.20
2018-09-21T06:25:14.937Z,12.77
2018-09-21T06:27:43.209Z,24.30
2018-09-21T06:30:10.568Z,21.63
2018-09-21T06:32:37.985Z,15.67
2018-09-21T06:35:05.352Z,20.90
2018-09-21T06:37:32.706Z,15.77
2018-09-21T06:40:00.367Z,17.03
2018-09-21T06:42:27.741Z,21.40
2018-09-21T06:44:55.100Z,15.90
2018-09-21T06:47:22.460Z,14.20
2018-09-21T06:49:49.885Z,16.07
2018-09-21T06:52:17.282Z,24.23
2018-09-21T06:54:45.257Z,15.13
2018-09-21T06:57:13.518Z,13.87
2018-09-21T06:59:41.077Z,20.93
2018-09-21T07:02:08.493Z,10.63
2018-09-21T07:04:35.865Z,14.10
2018-09-21T07:07:03.310Z,11.20
2018-09-21T07:09:30.646Z,24.17
2018-09-21T07:11:57.988Z,27.27
2018-09-21T07:14:25.320Z,11.73
2018-09-21T07:16:52.622Z,14.93
2018-09-21T07:19:19.965Z,14.13
2018-09-21T07:21:47.273Z,22.87
2018-09-21T07:24:15.624Z,14.60
2018-09-21T07:26:43.621Z,9.83
2018-09-21T07:29:11.026Z,11.47
2018-09-21T07:31:38.334Z,7.90
2018-09-21T07:34:05.950Z,19.00
2018-09-21T07:36:33.282Z,14.10
2018-09-21T07:39:00.631Z,14.00
2018-09-21T07:41:27.960Z,13.70
2018-09-21T07:43:55.302Z,8.70
2018-09-21T07:46:22.614Z,14.73
2018-09-21T07:48:49.965Z,9.57
2018-09-21T07:51:17.467Z,14.00
2018-09-21T07:53:45.684Z,6.90
2018-09-21T07:56:13.519Z,17.53
2018-09-21T07:58:40.929Z,11.60
2018-09-21T08:01:08.234Z,8.77
2018-09-21T08:03:35.593Z,6.83
2018-09-21T08:06:02.893Z,8.87
2018-09-21T08:08:30.264Z,7.90
2018-09-21T08:10:57.615Z,14.53
2018-09-21T08:13:24.967Z,10.70
2018-09-21T08:15:52.262Z,9.77
2018-09-21T08:18:19.607Z,15.53
2018-09-21T08:20:47.125Z,7.93
2018-09-21T08:23:15.485Z,9.20
2018-09-21T08:25:43.013Z,6.90
2018-09-21T08:28:10.435Z,7.37
2018-09-21T08:30:37.759Z,12.10
2018-09-21T08:33:05.278Z,13.40
2018-09-21T08:35:32.670Z,6.27
2018-09-21T08:37:59.999Z,5.53
2018-09-21T08:40:27.356Z,7.67
2018-09-21T08:42:54.728Z,14.67
2018-09-21T08:45:22.099Z,6.37
2018-09-21T08:47:49.487Z,8.03
2018-09-21T08:50:17.423Z,6.43
2018-09-21T08:52:45.658Z,6.80
2018-09-21T08:55:13.130Z,6.47
2018-09-21T08:57:40.490Z,11.13
2018-09-21T09:00:07.851Z,5.50
2018-09-21T09:02:35.211Z,9.63
2018-09-21T09:05:02.590Z,11.43
2018-09-21T09:07:29.911Z,8.37
2018-09-21T09:09:57.299Z,7.00
2018-09-21T09:12:24.874Z,9.00
2018-09-21T09:14:52.239Z,11.20
2018-09-21T09:17:19.579Z,12.07
2018-09-21T09:19:46.923Z,8.80
2018-09-21T09:22:14.253Z,10.77
2018-09-21T09:27:09.756Z,7.60
2018-09-21T09:29:37.421Z,15.33
2018-09-21T09:32:04.797Z,6.60
2018-09-21T09:34:32.137Z,8.33
2018-09-21T09:36:59.539Z,9.13
2018-09-21T09:39:26.829Z,5.83
2018-09-21T09:41:54.201Z,9.45
2018-09-21T09:44:21.568Z,10.70
2018-09-21T09:46:48.903Z,9.83
2018-09-21T09:49:16.276Z,10.10
2018-09-21T09:51:43.605Z,6.70
2018-09-21T09:54:11.486Z,9.33
2018-09-21T09:56:39.759Z,13.43
2018-09-21T09:59:07.115Z,11.90
2018-09-21T10:01:34.539Z,9.73
2018-09-21T10:04:01.890Z,8.57
2018-09-21T10:06:29.250Z,12.17
2018-09-21T10:08:56.614Z,8.30
2018-09-21T10:11:24.045Z,9.90
2018-09-21T10:13:51.342Z,7.73
2018-09-21T10:16:18.719Z,13.37
2018-09-21T10:18:46.018Z,8.83
2018-09-21T10:21:13.367Z,10.40
2018-09-21T10:23:41.631Z,13.97
2018-09-21T10:26:09.658Z,10.17
2018-09-21T10:28:37.136Z,16.17
2018-09-21T10:31:04.423Z,8.87
2018-09-21T10:33:31.818Z,9.40
2018-09-21T10:35:59.125Z,8.30
2018-09-21T10:38:26.509Z,10.73
2018-09-21T10:40:53.813Z,14.40
2018-09-21T10:43:21.178Z,14.67
2018-09-21T10:45:48.505Z,8.40
2018-09-21T10:48:15.837Z,8.13
2018-09-21T10:50:43.326Z,9.70
2018-09-21T10:53:11.615Z,10.90
2018-09-21T10:55:39.450Z,8.13
2018-09-21T10:58:06.894Z,10.07
2018-09-21T11:00:34.299Z,15.33
2018-09-21T11:03:01.602Z,12.67
2018-09-21T11:05:28.957Z,11.47
2018-09-21T11:07:56.270Z,15.87
2018-09-21T11:10:23.641Z,9.90
2018-09-21T11:12:51.022Z,11.93
2018-09-21T11:15:18.365Z,14.83
2018-09-21T11:17:45.723Z,26.40
2018-09-21T11:20:13.466Z,8.63
2018-09-21T11:22:41.966Z,9.40
2018-09-21T11:25:09.765Z,10.50
2018-09-21T11:27:37.178Z,17.47
2018-09-21T11:30:04.585Z,13.50
2018-09-21T11:32:31.918Z,12.60
2018-09-21T11:34:59.245Z,15.70
2018-09-21T11:37:26.577Z,14.00
2018-09-21T11:39:53.909Z,13.70
2018-09-21T11:42:21.276Z,9.43
2018-09-21T11:44:48.612Z,17.90
2018-09-21T11:47:16.117Z,15.40
2018-09-21T11:49:43.603Z,17.90
2018-09-21T11:52:12.207Z,11.70
2018-09-21T11:54:39.871Z,11.33
2018-09-21T11:57:07.293Z,11.97
2018-09-21T11:59:34.641Z,11.70
2018-09-21T12:02:01.991Z,16.97
2018-09-21T12:04:29.327Z,8.10
2018-09-21T12:06:56.713Z,10.33
2018-09-21T12:09:24.053Z,20.73
2018-09-21T12:11:51.400Z,25.33
2018-09-21T12:14:18.747Z,9.30
2018-09-21T12:16:46.132Z,12.13
2018-09-21T12:19:13.935Z,14.17
2018-09-21T12:21:42.602Z,18.73
2018-09-21T12:24:10.280Z,14.57
2018-09-21T12:26:37.709Z,11.53
2018-09-21T12:29:05.041Z,9.60
2018-09-21T12:31:32.431Z,9.57
2018-09-21T12:33:59.756Z,15.40
2018-09-21T12:36:27.180Z,9.30
2018-09-21T12:38:54.538Z,6.10
2018-09-21T12:41:22.050Z,14.03
2018-09-21T12:43:49.429Z,14.23
2018-09-21T12:46:21.122Z,8.50
2018-09-21T12:48:48.858Z,12.00
2018-09-21T12:51:16.226Z,7.10
2018-09-21T12:53:44.394Z,15.07
2018-09-21T12:56:12.516Z,9.40
2018-09-21T12:58:39.872Z,10.17
2018-09-21T13:01:07.771Z,7.03
2018-09-21T13:03:35.128Z,7.70
2018-09-21T13:06:02.446Z,5.27
2018-09-21T13:08:29.813Z,8.13
2018-09-21T13:10:57.210Z,13.37
2018-09-21T13:13:24.642Z,9.83
2018-09-21T13:15:52.454Z,14.23
2018-09-21T13:18:19.851Z,12.33
2018-09-21T13:20:47.174Z,10.67
2018-09-21T13:23:15.324Z,9.10
2018-09-21T13:25:43.619Z,13.93
2018-09-21T13:28:11.038Z,13.03
2018-09-21T13:30:38.442Z,6.93
2018-09-21T13:33:05.826Z,8.70
2018-09-21T13:35:33.155Z,8.80
2018-09-21T13:38:00.833Z,10.10
2018-09-21T13:40:28.185Z,7.97
2018-09-21T13:42:55.552Z,13.70
2018-09-21T13:45:22.872Z,7.43
2018-09-21T13:47:50.548Z,8.27
2018-09-21T13:50:17.894Z,15.53
2018-09-21T13:52:45.747Z,4.53
2018-09-21T13:55:14.088Z,9.20
2018-09-21T13:57:41.550Z,7.47
2018-09-21T14:00:10.895Z,9.90
2018-09-21T14:02:38.250Z,5.53
2018-09-21T14:05:05.886Z,7.43
2018-09-21T14:07:33.266Z,6.00
2018-09-21T14:10:00.654Z,3.60
2018-09-21T14:12:27.984Z,3.80
2018-09-21T14:14:55.374Z,4.97
2018-09-21T14:17:22.742Z,4.77
2018-09-21T14:19:50.201Z,4.50
2018-09-21T14:22:17.580Z,8.00
2018-09-21T14:24:46.230Z,5.77
2018-09-21T14:27:14.728Z,8.50
2018-09-21T14:29:42.186Z,3.50
2018-09-21T14:32:09.596Z,9.53
2018-09-21T14:34:36.983Z,7.60
2018-09-21T14:37:04.379Z,8.60
2018-09-21T14:39:31.800Z,3.43
2018-09-21T14:41:59.146Z,13.20
2018-09-21T14:44:26.507Z,19.37
2018-09-21T14:46:53.830Z,6.00
2018-09-21T14:49:21.220Z,6.17
2018-09-21T14:51:48.541Z,8.97
2018-09-21T14:54:16.739Z,4.33
2018-09-21T14:56:44.829Z,7.30
2018-09-21T14:59:12.250Z,6.13
2018-09-21T15:01:39.573Z,7.07
2018-09-21T15:04:06.945Z,3.73
2018-09-21T15:06:34.272Z,6.00
2018-09-21T15:09:01.670Z,15.33
2018-09-21T15:11:29.079Z,11.35
2018-09-21T15:13:56.479Z,13.73
2018-09-21T15:16:23.819Z,6.27
2018-09-21T15:18:51.201Z,8.33
2018-09-21T15:21:18.702Z,4.87
2018-09-21T15:23:46.889Z,4.40
2018-09-21T15:26:14.726Z,21.90
2018-09-21T15:28:42.135Z,1.73
2018-09-21T15:31:09.527Z,4.87
2018-09-21T15:33:36.909Z,1.73
2018-09-21T15:36:04.303Z,7.13
2018-09-21T15:38:31.621Z,1.67
2018-09-21T15:40:59.010Z,1.07
2018-09-21T15:43:26.396Z,1.13
2018-09-21T15:45:53.698Z,2.20
2018-09-21T15:48:21.028Z,2.10
2018-09-21T15:50:48.726Z,4.70
2018-09-21T15:53:17.067Z,1.47
2018-09-21T15:55:44.834Z,2.97
2018-09-21T15:58:12.454Z,4.53
2018-09-21T16:00:39.823Z,3.90
2018-09-21T16:03:07.166Z,3.53
2018-09-21T16:05:34.591Z,2.70
2018-09-21T16:08:01.924Z,2.27
2018-09-21T16:10:29.311Z,3.27
2018-09-21T16:12:56.661Z,4.37
2018-09-21T16:15:23.997Z,4.00
2018-09-21T16:17:51.334Z,5.00
2018-09-21T16:20:19.125Z,2.30
2018-09-21T16:22:47.515Z,3.47
2018-09-21T16:25:14.940Z,5.50
2018-09-21T16:27:42.330Z,2.67
2018-09-21T16:30:10.108Z,4.90
2018-09-21T16:32:37.434Z,3.80
2018-09-21T16:35:04.970Z,1.30
2018-09-21T16:37:32.278Z,1.73
2018-09-21T16:39:59.616Z,3.27
2018-09-21T16:42:26.944Z,1.47
2018-09-21T16:44:54.440Z,2.37
2018-09-21T16:47:21.634Z,3.37
2018-09-21T16:49:49.617Z,2.77
2018-09-21T16:52:17.920Z,2.37
2018-09-21T16:54:45.247Z,1.70
2018-09-21T16:57:19.563Z,3.10
2018-09-21T16:59:47.947Z,1.97
2018-09-21T17:02:15.402Z,5.27
2018-09-21T17:04:42.807Z,8.07
2018-09-21T17:07:13.183Z,1.17
2018-09-21T17:09:40.544Z,2.60
2018-09-21T17:12:07.905Z,4.10
2018-09-21T17:14:35.214Z,8.83
2018-09-21T17:17:02.551Z,2.63
2018-09-21T17:19:29.861Z,3.43
2018-09-21T17:21:57.216Z,1.63
2018-09-21T17:24:24.571Z,2.30
2018-09-21T17:26:51.937Z,2.50
2018-09-21T17:29:20.154Z,1.47
2018-09-21T17:31:48.476Z,9.37
2018-09-21T17:34:15.870Z,5.77
2018-09-21T17:36:43.210Z,7.93
2018-09-21T17:39:12.102Z,4.27
2018-09-21T17:41:39.436Z,2.60
2018-09-21T17:44:06.760Z,2.20
2018-09-21T17:46:34.093Z,2.70
2018-09-21T17:49:01.423Z,10.47
2018-09-21T17:51:28.740Z,3.90
2018-09-21T17:53:56.125Z,6.13
2018-09-21T17:56:23.455Z,5.30
2018-09-21T17:58:51.189Z,10.83
2018-09-21T18:01:19.713Z,12.63
2018-09-21T18:03:47.367Z,5.20
2018-09-21T18:06:14.741Z,5.67
2018-09-21T18:08:42.075Z,4.43
2018-09-21T18:11:09.442Z,4.83
2018-09-21T18:13:36.826Z,2.80
2018-09-21T18:16:04.228Z,4.10
2018-09-21T18:18:31.519Z,5.60
2018-09-21T18:20:58.867Z,3.63
2018-09-21T18:23:26.243Z,8.27
2018-09-21T18:25:53.671Z,3.10
2018-09-21T18:28:21.563Z,3.20
2018-09-21T18:30:49.957Z,6.13
2018-09-21T18:33:17.372Z,5.10
2018-09-21T18:35:44.743Z,3.77
2018-09-21T18:38:12.128Z,3.13
2018-09-21T18:40:39.563Z,4.80
2018-09-21T18:43:06.907Z,5.50
2018-09-21T18:45:34.259Z,2.97
2018-09-21T18:48:01.640Z,7.00
2018-09-21T18:50:29.034Z,7.50
2018-09-21T18:52:56.405Z,1.67
2018-09-21T18:55:23.767Z,4.90
2018-09-21T18:57:51.992Z,7.27
2018-09-21T19:00:20.222Z,4.67
2018-09-21T19:02:47.618Z,4.90
2018-09-21T19:05:15.006Z,5.67
2018-09-21T19:07:42.323Z,11.07
2018-09-21T19:10:09.697Z,5.33
2018-09-21T19:12:37.023Z,3.17
2018-09-21T19:15:04.382Z,3.77
2018-09-21T19:17:31.695Z,10.30
2018-09-21T19:19:59.054Z,4.83
2018-09-21T19:22:26.371Z,4.30
2018-09-21T19:24:53.925Z,6.77
2018-09-21T19:27:22.076Z,2.20
2018-09-21T19:29:49.918Z,15.77
2018-09-21T19:32:17.286Z,3.53
2018-09-21T19:34:44.614Z,3.10
2018-09-21T19:37:11.951Z,3.83
2018-09-21T19:39:39.282Z,5.10
2018-09-21T19:42:06.635Z,5.30
2018-09-21T19:44:34.007Z,7.20
2018-09-21T19:47:01.426Z,5.20
2018-09-21T19:49:28.766Z,4.40
2018-09-21T19:51:56.071Z,7.23
2018-09-21T19:54:23.677Z,4.40
2018-09-21T19:56:52.105Z,4.80
2018-09-21T19:59:19.710Z,4.07
2018-09-21T20:01:47.148Z,9.23
2018-09-21T20:04:14.469Z,4.87
2018-09-21T20:06:41.846Z,5.13
2018-09-21T20:09:10.860Z,7.73
2018-09-21T20:11:38.189Z,3.67
2018-09-21T20:14:05.679Z,7.93
2018-09-21T20:16:33.086Z,3.10
2018-09-21T20:19:00.419Z,2.20
2018-09-21T20:21:28.248Z,3.08
2018-09-21T20:23:56.432Z,2.03
2018-09-21T20:26:24.239Z,6.50
2018-09-21T20:28:52.716Z,6.60
2018-09-21T20:31:25.509Z,5.23
2018-09-21T20:33:53.870Z,6.30
2018-09-21T20:36:21.916Z,6.83
2018-09-21T20:38:49.327Z,3.60
2018-09-21T20:41:16.679Z,2.87
2018-09-21T20:43:44.029Z,7.87
2018-09-21T20:46:11.397Z,7.97
2018-09-21T20:48:38.718Z,4.53
2018-09-21T20:51:06.071Z,7.60
2018-09-21T20:53:33.404Z,8.63
2018-09-21T20:56:00.758Z,4.77
2018-09-21T20:58:28.083Z,4.57
2018-09-21T21:00:55.626Z,4.63
2018-09-21T21:03:23.982Z,16.33
2018-09-21T21:05:52.028Z,3.37
2018-09-21T21:08:19.457Z,10.90
2018-09-21T21:10:46.831Z,3.27
2018-09-21T21:13:14.211Z,5.10
2018-09-21T21:15:41.514Z,2.93
2018-09-21T21:18:08.835Z,3.40
2018-09-21T21:20:36.209Z,4.50
2018-09-21T21:23:03.638Z,5.87
2018-09-21T21:25:30.981Z,7.23
2018-09-21T21:27:59.238Z,9.70
2018-09-21T21:30:26.678Z,2.17
2018-09-21T21:32:55.244Z,6.90
2018-09-21T21:35:23.462Z,5.97
2018-09-21T21:37:51.171Z,4.03
2018-09-21T21:40:18.615Z,7.73
2018-09-21T21:42:45.972Z,2.70
2018-09-21T21:45:13.651Z,3.97
2018-09-21T21:47:40.987Z,9.17
2018-09-21T21:50:08.569Z,4.80
2018-09-21T21:52:35.894Z,5.70
2018-09-21T21:55:03.739Z,9.50
2018-09-21T21:57:31.095Z,6.50
2018-09-21T21:59:58.462Z,4.60
2018-09-21T22:02:26.359Z,5.80
2018-09-21T22:04:54.792Z,5.07
2018-09-21T22:07:22.457Z,7.03
2018-09-21T22:09:49.874Z,3.07
2018-09-21T22:12:22.695Z,5.03
2018-09-21T22:14:50.063Z,8.53
2018-09-21T22:17:17.414Z,6.63
2018-09-21T22:19:44.747Z,2.27
2018-09-21T22:22:12.098Z,2.90
2018-09-21T22:24:39.404Z,7.30
2018-09-21T22:27:06.745Z,4.37
2018-09-21T22:29:34.067Z,4.20
2018-09-21T22:32:01.401Z,7.03
2018-09-21T22:34:28.710Z,12.53
2018-09-21T22:36:56.884Z,2.10
2018-09-21T22:39:25.139Z,5.50
2018-09-21T22:41:52.593Z,6.27
2018-09-21T22:44:19.970Z,4.63
2018-09-21T22:46:47.294Z,3.90
2018-09-21T22:49:18.051Z,5.43
2018-09-21T22:51:45.416Z,4.80
2018-09-21T22:54:12.732Z,5.37
2018-09-21T22:56:40.097Z,6.53
2018-09-21T22:59:07.408Z,9.83
2018-09-21T23:01:34.743Z,2.20
2018-09-21T23:04:02.150Z,6.10
2018-09-21T23:06:29.472Z,1.50
2018-09-21T23:08:57.537Z,3.43
2018-09-21T23:11:25.791Z,9.97
2018-09-21T23:13:53.231Z,8.33
2018-09-21T23:16:20.614Z,5.67
2018-09-21T23:18:47.947Z,4.87
2018-09-21T23:21:15.377Z,11.13
2018-09-21T23:23:42.722Z,7.83
2018-09-21T23:26:10.045Z,6.17
2018-09-21T23:28:37.373Z,6.47
2018-09-21T23:31:04.701Z,4.13
2018-09-21T23:33:32.043Z,4.63
2018-09-21T23:35:59.399Z,8.50
2018-09-21T23:38:27.928Z,2.47
2018-09-21T23:40:56.154Z,6.60
2018-09-21T23:43:23.549Z,3.33
2018-09-21T23:45:50.925Z,6.03
2018-09-21T23:48:18.300Z,1.83
2018-09-21T23:50:45.626Z,9.70
2018-09-21T23:53:13.005Z,3.20
2018-09-21T23:55:40.319Z,4.77
2018-09-21T23:58:07.692Z,7.17
